Aviation Digital Data Service (ADDS)

Output produced by METARs form (1053 UTC 24 April 2018)
found at http://aviationweather.gov/adds/metars/
 
KPSM 240852Z 2409/2506 19004KT P6SM SKC 
     FM241600 18010KT P6SM SCT250